Time;durP1;ratioP1;P1;durP2;ratioP2;P2;SDS_P1;SDS_P2;PMS_P1;PMS_P2;Temp;Humidity;BMP_temperature;BMP_pressure;BME280_temperature;BME280_humidity;BME280_pressure;Samples;Min_cycle;Max_cycle;Signal;HPM_P1;HPM_P2
2024/01/09 00:02:00;;;;;;;11.65;4.80;;;;;;;0.33;46.83;101005.06;5074297;28;20052;-45
2024/01/09 00:04:28;;;;;;;10.10;4.43;;;;;;;0.32;46.42;101005.94;5074167;28;20049;-45
2024/01/09 00:06:58;;;;;;;12.82;5.40;;;;;;;0.36;46.71;101012.91;5072926;28;20069;-45
2024/01/09 00:09:27;;;;;;;12.63;5.25;;;;;;;0.45;47.37;101006.72;5073882;28;20060;-44
2024/01/09 00:11:55;;;;;;;15.10;6.90;;;;;;;0.46;46.92;101019.81;5074000;28;20041;-46
2024/01/09 00:14:23;;;;;;;14.48;6.45;;;;;;;0.40;46.16;101012.00;5073875;28;20045;-44
2024/01/09 00:16:52;;;;;;;11.60;5.95;;;;;;;0.27;45.78;101028.69;5073752;28;20371;-46
2024/01/09 00:19:20;;;;;;;11.98;5.15;;;;;;;0.26;45.33;101019.06;5073567;28;20049;-50
2024/01/09 00:21:49;;;;;;;8.95;5.00;;;;;;;0.22;44.40;101020.88;5073477;28;20045;-44
2024/01/09 00:24:19;;;;;;;10.80;5.28;;;;;;;0.25;44.35;101033.09;5073536;28;20152;-45
2024/01/09 00:26:47;;;;;;;10.88;4.70;;;;;;;0.19;44.03;101030.47;5073750;28;20063;-44
2024/01/09 00:29:16;;;;;;;9.18;4.90;;;;;;;0.28;44.20;101038.31;5073233;28;20049;-46
2024/01/09 00:31:44;;;;;;;9.00;4.80;;;;;;;0.13;42.29;101046.28;5073534;28;20040;-45
2024/01/09 00:34:13;;;;;;;9.30;4.50;;;;;;;0.28;42.88;101046.19;5073377;28;20477;-45
2024/01/09 00:36:43;;;;;;;9.95;4.00;;;;;;;0.14;42.63;101048.00;5073056;28;20083;-45
2024/01/09 00:39:11;;;;;;;10.82;4.35;;;;;;;0.27;42.86;101049.69;5073415;28;20080;-44
2024/01/09 00:41:41;;;;;;;9.10;3.90;;;;;;;0.19;42.50;101056.72;5073228;28;20053;-44
2024/01/09 00:44:09;;;;;;;8.82;4.22;;;;;;;0.16;42.24;101052.38;5073177;28;20044;-43
2024/01/09 00:46:37;;;;;;;9.43;4.25;;;;;;;0.14;42.08;101069.00;5073128;28;20135;-43
2024/01/09 00:49:05;;;;;;;9.05;4.38;;;;;;;0.25;42.25;101075.06;5072815;28;20052;-46
2024/01/09 00:51:34;;;;;;;9.75;4.45;;;;;;;0.31;42.02;101074.19;5073242;28;20190;-44
2024/01/09 00:54:03;;;;;;;8.00;4.18;;;;;;;0.40;42.75;101075.00;5072974;28;20044;-44
2024/01/09 00:56:31;;;;;;;8.23;4.18;;;;;;;0.24;42.53;101078.56;5072979;28;20148;-45
2024/01/09 00:59:01;;;;;;;10.85;4.68;;;;;;;0.48;43.52;101075.84;5073114;28;20049;-46
2024/01/09 01:01:29;;;;;;;9.40;4.32;;;;;;;0.33;42.50;101083.78;5072992;28;20483;-45
2024/01/09 01:03:58;;;;;;;8.90;4.00;;;;;;;0.27;42.80;101083.78;5072889;28;20118;-44
2024/01/09 01:06:27;;;;;;;6.57;3.78;;;;;;;0.24;42.22;101091.69;5073160;28;20165;-45
2024/01/09 01:08:55;;;;;;;8.27;3.78;;;;;;;0.20;41.43;101095.22;5072875;28;20075;-44
2024/01/09 01:11:23;;;;;;;7.32;3.72;;;;;;;0.13;41.14;101098.75;5072286;28;20135;-44
2024/01/09 01:13:52;;;;;;;7.38;3.80;;;;;;;0.15;41.21;101102.22;5072643;28;20036;-44
2024/01/09 01:16:22;;;;;;;9.48;4.07;;;;;;;0.22;40.58;101099.59;5072251;28;20032;-45
2024/01/09 01:18:50;;;;;;;8.18;4.15;;;;;;;0.16;40.73;101098.72;5072172;28;20646;-43
2024/01/09 01:21:18;;;;;;;8.35;3.92;;;;;;;0.11;41.10;101106.63;5072170;28;20587;-45
2024/01/09 01:23:46;;;;;;;8.60;4.18;;;;;;;0.30;41.36;101101.31;5072171;28;20118;-44
2024/01/09 01:26:15;;;;;;;9.88;3.97;;;;;;;0.23;41.00;101103.94;5072435;28;20127;-44
2024/01/09 01:28:43;;;;;;;7.82;4.05;;;;;;;0.27;41.32;101107.41;5072189;28;20044;-45
2024/01/09 01:31:12;;;;;;;8.75;3.83;;;;;;;0.24;40.81;101108.31;5072243;28;20088;-44
2024/01/09 01:33:41;;;;;;;11.18;4.32;;;;;;;0.23;41.04;101106.56;5072177;28;20040;-44
2024/01/09 01:36:14;;;;;;;9.45;4.18;;;;;;;0.23;40.85;101113.56;5072252;28;20049;-43
2024/01/09 01:38:42;;;;;;;8.05;4.13;;;;;;;0.25;40.95;101119.69;5072151;28;20068;-44
2024/01/09 01:41:11;;;;;;;8.55;4.13;;;;;;;0.14;40.87;101121.47;5072193;28;20052;-44
2024/01/09 01:43:39;;;;;;;9.30;4.40;;;;;;;0.21;41.15;101120.59;5072049;28;20131;-45
2024/01/09 01:46:08;;;;;;;8.43;4.00;;;;;;;0.33;39.86;101127.53;5072315;28;20052;-44
2024/01/09 01:48:37;;;;;;;8.75;3.78;;;;;;;0.11;40.14;101127.63;5072067;28;20041;-44
2024/01/09 01:51:07;;;;;;;7.82;3.55;;;;;;;0.28;39.58;101135.41;5071887;28;20119;-44
2024/01/09 01:53:36;;;;;;;7.63;3.30;;;;;;;0.21;38.02;101125.81;5071870;28;20048;-45
2024/01/09 01:56:06;;;;;;;7.32;3.50;;;;;;;0.16;38.25;101124.97;5072133;28;20151;-45
2024/01/09 01:58:35;;;;;;;7.65;3.42;;;;;;;0.19;37.92;101124.94;5072593;28;20041;-45
2024/01/09 02:01:04;;;;;;;6.43;3.00;;;;;;;0.30;37.60;101128.41;5072632;28;20048;-45
2024/01/09 02:03:33;;;;;;;7.20;3.65;;;;;;;0.16;37.23;101125.84;5072556;28;20072;-44
2024/01/09 02:06:02;;;;;;;6.10;3.13;;;;;;;0.18;37.43;101129.31;5071777;28;20040;-44
2024/01/09 02:08:33;;;;;;;7.38;3.25;;;;;;;0.31;37.74;101132.78;5071895;28;20048;-43
2024/01/09 02:11:01;;;;;;;6.88;3.30;;;;;;;0.14;37.39;101124.09;5071684;28;20048;-44
2024/01/09 02:13:30;;;;;;;6.80;3.10;;;;;;;0.27;37.80;101133.66;5071952;28;20040;-46
2024/01/09 02:15:58;;;;;;;7.38;3.58;;;;;;;0.08;37.21;101137.22;5072344;28;20131;-44
2024/01/09 02:18:27;;;;;;;6.40;2.90;;;;;;;0.15;37.67;101128.47;5072138;28;20045;-44
2024/01/09 02:20:56;;;;;;;6.43;3.15;;;;;;;0.03;37.15;101133.75;5072104;28;20135;-45
2024/01/09 02:23:24;;;;;;;6.13;3.30;;;;;;;0.09;37.65;101138.97;5071806;28;20524;-45
2024/01/09 02:25:54;;;;;;;7.90;3.38;;;;;;;0.15;37.55;101138.97;5071860;28;20361;-45
2024/01/09 02:28:37;;;;;;;7.13;2.85;;;;;;;0.16;37.07;101140.69;5070754;28;20473;-45
2024/01/09 02:31:07;;;;;;;5.97;2.93;;;;;;;0.06;37.36;101133.75;5071323;28;20455;-45
2024/01/09 02:33:36;;;;;;;5.88;3.15;;;;;;;0.04;37.26;101140.75;5071776;28;20497;-43
2024/01/09 02:36:05;;;;;;;6.22;3.00;;;;;;;0.04;36.90;101146.88;5072200;28;20143;-44
2024/01/09 02:38:35;;;;;;;6.45;3.00;;;;;;;-0.01;36.55;101143.38;5072181;28;20060;-45
2024/01/09 02:41:03;;;;;;;5.65;2.90;;;;;;;-0.01;36.81;101144.25;5071940;28;20129;-45
2024/01/09 02:43:31;;;;;;;6.70;2.30;;;;;;;-0.04;36.93;101148.63;5071482;28;20040;-45
2024/01/09 02:46:00;;;;;;;6.18;3.17;;;;;;;0.13;36.70;101143.34;5071498;28;20106;-45
2024/01/09 02:48:29;;;;;;;5.50;3.17;;;;;;;-0.05;36.67;101145.13;5071312;28;20055;-44
2024/01/09 02:50:58;;;;;;;7.13;3.08;;;;;;;-0.03;36.43;101151.25;5071406;28;20052;-44
2024/01/09 02:53:26;;;;;;;6.13;3.20;;;;;;;-0.10;36.32;101148.63;5071311;28;20045;-44
2024/01/09 02:55:55;;;;;;;6.72;2.80;;;;;;;-0.02;36.51;101145.13;5071171;28;20049;-44
2024/01/09 02:58:23;;;;;;;5.38;2.72;;;;;;;0.01;36.36;101146.88;5071148;28;20075;-45
2024/01/09 03:00:51;;;;;;;6.78;3.13;;;;;;;0.05;36.10;101152.97;5070993;28;20053;-44
2024/01/09 03:03:20;;;;;;;7.95;2.90;;;;;;;0.06;36.62;101152.97;5071078;28;20044;-45
2024/01/09 03:05:50;;;;;;;5.88;2.83;;;;;;;0.13;36.39;101153.84;5070931;28;20093;-45
2024/01/09 03:08:19;;;;;;;6.32;3.17;;;;;;;0.19;36.07;101159.94;5071033;28;20050;-47
2024/01/09 03:10:47;;;;;;;5.07;2.58;;;;;;;0.10;35.82;101159.09;5070937;28;20053;-43
2024/01/09 03:13:15;;;;;;;7.72;3.20;;;;;;;0.06;36.13;101165.22;5070755;28;20049;-44
2024/01/09 03:15:44;;;;;;;6.00;2.97;;;;;;;0.13;35.82;101153.84;5071116;28;20052;-44
2024/01/09 03:18:13;;;;;;;5.65;2.75;;;;;;;0.16;36.07;101164.31;5070975;28;20052;-45
2024/01/09 03:20:42;;;;;;;7.60;2.75;;;;;;;0.10;36.11;101161.72;5071116;28;20048;-44
2024/01/09 03:23:12;;;;;;;6.28;2.78;;;;;;;0.14;36.37;101166.94;5071235;28;20530;-51
2024/01/09 03:25:43;;;;;;;5.38;2.50;;;;;;;0.22;36.07;101169.56;5071113;28;20125;-45
2024/01/09 03:28:11;;;;;;;7.10;2.78;;;;;;;0.15;35.76;101176.56;5070649;28;20550;-44
2024/01/09 03:30:39;;;;;;;5.97;2.80;;;;;;;0.21;36.06;101165.19;5071002;28;20049;-44
2024/01/09 03:33:08;;;;;;;6.63;3.30;;;;;;;0.20;36.72;101174.81;5070899;28;20044;-45
2024/01/09 03:35:36;;;;;;;6.93;3.03;;;;;;;0.17;36.16;101180.06;5070676;28;20048;-45
2024/01/09 03:38:05;;;;;;;6.45;3.00;;;;;;;0.20;37.16;101184.44;5070558;28;20050;-45
2024/01/09 03:40:35;;;;;;;5.97;2.60;;;;;;;0.08;36.66;101182.69;5071740;28;20053;-45
2024/01/09 03:43:05;;;;;;;7.22;2.90;;;;;;;0.16;36.91;101175.69;5074646;28;20101;-44
2024/01/09 03:45:33;;;;;;;6.03;2.88;;;;;;;0.04;36.97;101182.72;5074512;28;20048;-44
2024/01/09 03:48:01;;;;;;;9.65;3.13;;;;;;;0.08;36.62;101194.94;5074585;28;20136;-45
2024/01/09 03:50:30;;;;;;;5.43;2.60;;;;;;;-0.03;36.71;101200.22;5074111;28;20175;-45
2024/01/09 03:52:58;;;;;;;6.43;2.78;;;;;;;-0.02;37.23;101197.59;5073817;28;20053;-44
2024/01/09 03:55:27;;;;;;;5.35;2.90;;;;;;;0.08;37.18;101195.81;5073942;28;20549;-46
2024/01/09 03:57:56;;;;;;;6.75;3.00;;;;;;;0.12;37.49;101201.94;5073985;28;20045;-43
2024/01/09 04:00:25;;;;;;;5.10;2.75;;;;;;;0.06;37.06;101196.69;5073922;28;20095;-45
2024/01/09 04:02:53;;;;;;;6.15;2.90;;;;;;;0.02;37.57;101205.47;5074036;28;20044;-44
2024/01/09 04:05:21;;;;;;;5.22;2.60;;;;;;;-0.02;37.42;101215.94;5073782;28;20404;-44
2024/01/09 04:07:49;;;;;;;6.85;3.05;;;;;;;-0.08;37.42;101215.97;5073854;28;20071;-44
2024/01/09 04:10:18;;;;;;;6.32;3.08;;;;;;;-0.02;37.72;101221.19;5073958;28;20044;-44
2024/01/09 04:12:46;;;;;;;7.40;3.10;;;;;;;-0.13;37.16;101236.06;5073713;28;20052;-44
2024/01/09 04:15:16;;;;;;;6.68;2.58;;;;;;;-0.01;37.58;101233.41;5073678;28;20489;-44
2024/01/09 04:17:45;;;;;;;5.55;2.60;;;;;;;-0.15;37.31;101237.81;5073700;28;20151;-44
2024/01/09 04:20:14;;;;;;;5.53;2.40;;;;;;;-0.12;37.14;101234.31;5073615;28;20044;-45
2024/01/09 04:22:42;;;;;;;5.72;2.40;;;;;;;-0.13;37.81;101238.69;5073559;28;20449;-44
2024/01/09 04:25:12;;;;;;;7.25;2.70;;;;;;;-0.12;38.31;101245.69;5073731;28;20045;-45
2024/01/09 04:27:41;;;;;;;5.55;2.50;;;;;;;-0.08;37.78;101242.19;5073626;28;20196;-44
2024/01/09 04:30:11;;;;;;;6.07;2.58;;;;;;;-0.11;37.84;101246.56;5073442;28;20053;-44
2024/01/09 04:32:41;;;;;;;6.22;2.42;;;;;;;-0.06;38.06;101250.06;5073261;28;20048;-44
2024/01/09 04:35:10;;;;;;;5.60;2.83;;;;;;;-0.15;37.96;101250.06;5073583;28;20405;-45
2024/01/09 04:37:38;;;;;;;5.68;2.75;;;;;;;-0.21;38.06;101257.91;5073472;28;20052;-44
2024/01/09 04:40:09;;;;;;;4.50;2.25;;;;;;;-0.25;38.09;101266.69;5073526;28;20049;-45
2024/01/09 04:42:37;;;;;;;6.38;2.63;;;;;;;-0.23;38.38;101257.06;5073030;28;20080;-44
2024/01/09 04:45:06;;;;;;;7.07;2.97;;;;;;;-0.19;38.66;101259.69;5073324;28;20045;-46
2024/01/09 04:47:34;;;;;;;5.55;2.83;;;;;;;-0.20;38.29;101257.91;5073021;28;20147;-44
2024/01/09 04:50:05;;;;;;;7.70;2.97;;;;;;;-0.23;38.52;101268.41;5073037;28;20473;-45
2024/01/09 04:52:35;;;;;;;6.20;2.72;;;;;;;-0.16;38.93;101264.06;5072614;28;20105;-45
2024/01/09 04:55:04;;;;;;;5.22;2.63;;;;;;;-0.10;38.79;101264.91;5073171;28;20558;-44
2024/01/09 04:57:33;;;;;;;6.25;2.80;;;;;;;-0.08;38.80;101257.94;5072906;28;20044;-45
2024/01/09 05:00:01;;;;;;;6.15;2.88;;;;;;;-0.12;38.51;101266.66;5072638;28;20048;-46
2024/01/09 05:02:30;;;;;;;7.30;2.97;;;;;;;-0.23;38.28;101272.78;5072991;28;20051;-44
2024/01/09 05:04:59;;;;;;;8.05;2.83;;;;;;;-0.18;38.45;101277.19;5072738;28;20137;-44
2024/01/09 05:07:29;;;;;;;6.70;3.17;;;;;;;-0.33;38.59;101279.78;5072624;28;20045;-44
2024/01/09 05:09:57;;;;;;;5.80;3.00;;;;;;;-0.22;38.99;101274.53;5072589;28;20086;-44
2024/01/09 05:12:25;;;;;;;7.10;3.05;;;;;;;-0.15;38.54;101292.91;5072531;28;20129;-46
2024/01/09 05:14:54;;;;;;;7.30;3.22;;;;;;;-0.20;38.56;101283.28;5072685;28;20114;-45
2024/01/09 05:17:22;;;;;;;8.68;3.30;;;;;;;-0.17;37.45;101294.66;5072483;28;20055;-45
2024/01/09 05:19:50;;;;;;;7.82;3.47;;;;;;;-0.13;38.01;101287.66;5072635;28;20120;-45
2024/01/09 05:22:23;;;;;;;5.95;3.20;;;;;;;-0.12;38.09;101298.13;5072294;28;20494;-44
2024/01/09 05:24:53;;;;;;;7.85;3.50;;;;;;;-0.18;38.16;101299.91;5072914;28;20467;-45
2024/01/09 05:27:21;;;;;;;8.82;3.20;;;;;;;-0.09;38.13;101308.66;5072451;28;20044;-48
2024/01/09 05:29:49;;;;;;;9.40;3.55;;;;;;;-0.14;37.61;101305.13;5072322;28;20052;-44
2024/01/09 05:32:17;;;;;;;8.50;3.25;;;;;;;-0.17;38.38;101310.38;5072359;28;20040;-45
2024/01/09 05:34:46;;;;;;;7.65;3.35;;;;;;;-0.08;37.86;101317.38;5072506;28;20090;-43
2024/01/09 05:37:14;;;;;;;7.07;3.00;;;;;;;-0.12;37.50;101319.13;5072206;28;20048;-45
2024/01/09 05:39:43;;;;;;;7.75;3.17;;;;;;;-0.16;37.50;101322.63;5071924;28;20485;-44
2024/01/09 05:42:14;;;;;;;8.07;2.95;;;;;;;-0.12;37.62;101323.50;5072321;28;20439;-46
2024/01/09 05:44:42;;;;;;;7.53;3.20;;;;;;;-0.10;38.14;101327.84;5072034;28;20056;-45
2024/01/09 05:47:10;;;;;;;7.57;2.92;;;;;;;-0.12;36.97;101334.84;5072084;28;20131;-43
2024/01/09 05:49:39;;;;;;;8.82;3.50;;;;;;;0.05;38.28;101337.50;5074456;28;20040;-45
2024/01/09 05:52:07;;;;;;;6.80;3.13;;;;;;;0.03;37.99;101335.75;5075418;28;20053;-45
2024/01/09 05:54:36;;;;;;;8.38;3.55;;;;;;;0.08;37.79;101337.47;5074895;28;20049;-45
2024/01/09 05:57:06;;;;;;;8.27;3.28;;;;;;;-0.14;37.69;101339.22;5072173;28;20048;-46
2024/01/09 05:59:36;;;;;;;9.15;3.55;;;;;;;-0.13;37.87;101343.59;5072352;28;20194;-44
2024/01/09 06:02:05;;;;;;;10.40;3.67;;;;;;;-0.09;38.09;101347.13;5072212;28;20072;-44
2024/01/09 06:04:34;;;;;;;8.35;3.58;;;;;;;-0.08;38.08;101352.34;5072037;28;20052;-44
2024/01/09 06:07:02;;;;;;;8.38;3.20;;;;;;;-0.05;38.09;101354.97;5071829;28;20055;-45
2024/01/09 06:09:30;;;;;;;7.30;3.10;;;;;;;-0.05;38.39;101362.84;5071880;28;20048;-48
2024/01/09 06:11:59;;;;;;;7.22;2.80;;;;;;;-0.17;38.02;101370.69;5071618;28;20646;-46
2024/01/09 06:14:28;;;;;;;7.13;3.45;;;;;;;-0.17;38.14;101368.09;5071494;28;20060;-45
2024/01/09 06:16:57;;;;;;;7.97;3.25;;;;;;;-0.32;38.07;101368.03;5071339;28;20325;-45
2024/01/09 06:19:26;;;;;;;7.55;3.50;;;;;;;-0.22;38.12;101368.94;5071561;28;20048;-46
2024/01/09 06:21:54;;;;;;;7.43;3.17;;;;;;;-0.09;38.50;101382.09;5071606;28;20045;-44
2024/01/09 06:24:22;;;;;;;6.82;3.10;;;;;;;-0.10;38.50;101388.19;5071623;28;20527;-43
2024/01/09 06:26:50;;;;;;;6.78;2.83;;;;;;;-0.12;38.03;101397.78;5071815;28;20138;-44
2024/01/09 06:29:19;;;;;;;8.93;3.10;;;;;;;-0.16;38.06;101390.81;5071432;28;20041;-45
2024/01/09 06:31:47;;;;;;;9.80;3.78;;;;;;;-0.15;38.55;101389.94;5071625;28;20045;-43
2024/01/09 06:34:17;;;;;;;8.10;3.60;;;;;;;-0.20;37.97;101398.66;5071141;28;20048;-45
2024/01/09 06:36:46;;;;;;;7.35;3.50;;;;;;;-0.21;38.56;101404.78;5071408;28;20046;-43
2024/01/09 06:39:14;;;;;;;7.35;3.40;;;;;;;-0.20;38.13;101404.75;5071209;28;20477;-45
2024/01/09 06:41:42;;;;;;;10.82;4.13;;;;;;;-0.10;38.01;101417.03;5071378;28;20211;-46
2024/01/09 06:44:10;;;;;;;7.93;3.60;;;;;;;-0.27;37.55;101418.75;5071274;28;20053;-44
2024/01/09 06:46:39;;;;;;;9.20;3.50;;;;;;;-0.31;37.83;101422.22;5070941;28;20084;-45
2024/01/09 06:49:07;;;;;;;8.50;3.60;;;;;;;-0.22;37.98;101424.00;5071344;28;20048;-45
2024/01/09 06:51:37;;;;;;;7.75;3.80;;;;;;;-0.16;37.88;101418.78;5071256;28;20478;-45
2024/01/09 06:54:06;;;;;;;7.80;3.22;;;;;;;-0.21;37.58;101426.63;5070995;28;20048;-43
2024/01/09 06:56:34;;;;;;;9.00;3.80;;;;;;;0.06;38.08;101427.56;5071187;28;20052;-45
2024/01/09 06:59:03;;;;;;;6.95;3.42;;;;;;;-0.03;37.73;101429.28;5070858;28;20098;-46
2024/01/09 07:01:35;;;;;;;7.70;3.67;;;;;;;-0.08;38.14;101436.28;5070809;28;20128;-47
2024/01/09 07:04:04;;;;;;;9.18;3.47;;;;;;;-0.11;37.83;101452.00;5070835;28;20048;-44
2024/01/09 07:06:33;;;;;;;11.18;3.95;;;;;;;-0.16;38.31;101448.50;5070988;28;20040;-47
2024/01/09 07:09:02;;;;;;;10.18;3.78;;;;;;;-0.08;38.31;101449.41;5070686;28;20414;-42
2024/01/09 07:11:31;;;;;;;8.95;3.88;;;;;;;-0.12;37.92;101459.88;5070870;28;20040;-43
2024/01/09 07:14:00;;;;;;;9.27;3.80;;;;;;;0.03;38.50;101461.66;5070687;28;20052;-46
2024/01/09 07:16:29;;;;;;;8.70;3.67;;;;;;;0.02;38.26;101459.91;5073601;28;20213;-44
2024/01/09 07:18:57;;;;;;;9.70;3.80;;;;;;;-0.02;38.16;101469.50;5074870;28;20044;-45
2024/01/09 07:21:26;;;;;;;8.43;3.72;;;;;;;0.02;37.90;101467.78;5074750;28;20127;-45
2024/01/09 07:23:54;;;;;;;9.25;3.60;;;;;;;0.09;38.88;101482.66;5071441;28;20045;-43
2024/01/09 07:26:24;;;;;;;7.18;3.70;;;;;;;-0.01;38.13;101487.88;5054088;28;20045;-44
2024/01/09 07:28:52;;;;;;;8.40;3.92;;;;;;;0.04;37.77;101492.28;5054236;28;20699;-43
2024/01/09 07:31:20;;;;;;;10.07;4.10;;;;;;;0.12;38.35;101486.19;5054309;28;20080;-46
2024/01/09 07:33:49;;;;;;;12.48;5.15;;;;;;;0.15;38.04;101486.16;5054272;28;20055;-46
2024/01/09 07:36:17;;;;;;;16.77;6.15;;;;;;;0.06;37.63;101501.88;5054646;28;20459;-45
2024/01/09 07:38:46;;;;;;;8.27;3.67;;;;;;;0.06;37.90;101501.88;5055073;28;20448;-44
2024/01/09 07:41:17;;;;;;;8.52;3.50;;;;;;;0.07;37.43;101502.75;5055087;28;20060;-44
2024/01/09 07:43:46;;;;;;;10.25;3.78;;;;;;;0.01;37.29;101511.50;5054370;28;20064;-44
2024/01/09 07:46:15;;;;;;;7.28;3.97;;;;;;;0.04;37.19;101508.00;5054322;28;20136;-44
2024/01/09 07:48:43;;;;;;;7.18;3.53;;;;;;;0.13;37.48;101516.78;5054074;28;20041;-43
2024/01/09 07:51:12;;;;;;;10.68;3.80;;;;;;;0.08;36.12;101513.25;5054236;28;20049;-45
2024/01/09 07:53:41;;;;;;;7.57;3.50;;;;;;;0.03;37.30;101511.50;5053975;28;20148;-44
2024/01/09 07:56:15;;;;;;;8.82;3.38;;;;;;;0.08;37.86;101517.63;5054140;28;20045;-45
2024/01/09 07:58:43;;;;;;;8.23;3.88;;;;;;;0.20;37.21;101522.94;5053938;28;20457;-47
2024/01/09 08:01:13;;;;;;;10.38;3.70;;;;;;;0.22;37.19;101524.69;5054124;28;20136;-44
2024/01/09 08:03:42;;;;;;;10.63;4.25;;;;;;;0.33;37.08;101522.06;5053586;28;20462;-44
2024/01/09 08:06:13;;;;;;;9.48;3.88;;;;;;;0.22;37.10;101526.44;5053958;28;20417;-46
2024/01/09 08:08:42;;;;;;;8.95;4.13;;;;;;;0.16;36.74;101521.16;5053937;28;20053;-44
2024/01/09 08:11:12;;;;;;;9.98;4.57;;;;;;;0.24;36.88;101537.81;5053608;28;20080;-45
2024/01/09 08:13:41;;;;;;;10.15;4.53;;;;;;;0.23;37.36;101536.06;5053479;28;20119;-46
2024/01/09 08:16:09;;;;;;;10.80;4.65;;;;;;;0.34;37.46;101541.31;5053603;28;20055;-44
2024/01/09 08:18:39;;;;;;;9.68;4.18;;;;;;;0.33;36.64;101540.44;5053263;28;20482;-44
2024/01/09 08:21:07;;;;;;;7.63;3.70;;;;;;;0.37;37.31;101547.44;5053206;28;20133;-43
2024/01/09 08:23:36;;;;;;;10.50;4.10;;;;;;;0.38;37.29;101543.06;5053392;28;20140;-47
2024/01/09 08:26:05;;;;;;;8.43;3.63;;;;;;;0.55;37.43;101536.09;5058348;28;20044;-45
2024/01/09 08:28:33;;;;;;;8.75;3.80;;;;;;;0.70;37.38;101553.63;5072487;28;20053;-45
2024/01/09 08:31:02;;;;;;;9.15;3.67;;;;;;;0.64;37.04;101558.88;5073392;28;20044;-43
2024/01/09 08:33:34;;;;;;;23.65;10.23;;;;;;;0.76;37.38;101549.25;5073061;28;20075;-43
2024/01/09 08:36:04;;;;;;;25.77;10.20;;;;;;;0.92;37.71;101558.03;5073474;28;20041;-45
2024/01/09 08:38:33;;;;;;;10.25;5.20;;;;;;;0.79;36.83;101569.41;5074640;28;20048;-44
2024/01/09 08:41:02;;;;;;;8.13;3.45;;;;;;;0.79;36.57;101574.66;5073205;28;20048;-44
2024/01/09 08:43:31;;;;;;;9.50;3.28;;;;;;;0.90;37.13;101570.28;5073055;28;20048;-45
2024/01/09 08:45:59;;;;;;;8.70;3.50;;;;;;;0.77;35.90;101571.13;5073115;28;20048;-45
2024/01/09 08:48:27;;;;;;;10.40;3.85;;;;;;;0.85;35.63;101564.13;5073495;28;20056;-45
2024/01/09 08:50:57;;;;;;;7.72;3.45;;;;;;;0.79;35.87;101575.53;5073691;28;20040;-45
2024/01/09 08:53:28;;;;;;;10.65;4.10;;;;;;;0.74;36.08;101579.00;5072735;28;20131;-45
2024/01/09 08:55:57;;;;;;;10.13;3.40;;;;;;;0.76;36.17;101583.38;5072877;28;20052;-43
2024/01/09 08:58:25;;;;;;;8.00;3.65;;;;;;;1.20;37.47;101579.03;5072596;28;20087;-45
2024/01/09 09:00:53;;;;;;;6.60;3.15;;;;;;;0.92;35.02;101584.28;5072473;28;20462;-45
2024/01/09 09:03:22;;;;;;;7.78;3.40;;;;;;;1.02;35.43;101587.78;5072256;28;20501;-44
2024/01/09 09:05:50;;;;;;;10.18;3.67;;;;;;;1.11;34.95;101595.69;5072614;28;20113;-43
2024/01/09 09:08:21;;;;;;;7.20;3.58;;;;;;;1.08;35.53;101593.06;5072455;28;20359;-45
2024/01/09 09:10:51;;;;;;;7.95;3.80;;;;;;;1.08;35.20;101593.06;5072559;28;20072;-45
2024/01/09 09:13:19;;;;;;;10.57;3.75;;;;;;;1.18;35.55;101593.94;5072826;28;20045;-44
2024/01/09 09:15:48;;;;;;;61.05;23.52;;;;;;;1.31;35.69;101595.66;5072541;28;20417;-50
2024/01/09 09:18:16;;;;;;;8.93;4.22;;;;;;;1.25;35.07;101595.66;5072049;28;20055;-44
2024/01/09 09:20:45;;;;;;;11.70;4.15;;;;;;;1.09;35.26;101600.06;5072988;28;20090;-44
2024/01/09 09:23:13;;;;;;;10.07;4.10;;;;;;;1.31;35.53;101606.19;5072629;28;20525;-44
2024/01/09 09:25:42;;;;;;;13.98;4.82;;;;;;;1.07;35.54;101592.19;5072266;28;20451;-45
2024/01/09 09:28:13;;;;;;;9.43;4.45;;;;;;;1.18;36.29;101604.44;5073196;28;20054;-44
2024/01/09 09:30:41;;;;;;;9.00;4.10;;;;;;;1.05;35.00;101604.44;5072572;28;20124;-44
2024/01/09 09:33:10;;;;;;;7.35;3.85;;;;;;;1.15;34.50;101605.31;5071616;28;20129;-45
2024/01/09 09:35:38;;;;;;;8.48;3.88;;;;;;;1.17;34.47;101602.69;5072104;28;20055;-44
2024/01/09 09:38:07;;;;;;;7.78;3.65;;;;;;;1.47;34.90;101596.53;5071644;28;20525;-45
2024/01/09 09:40:37;;;;;;;8.60;3.78;;;;;;;1.57;34.69;101599.16;5072106;28;20040;-43
2024/01/09 09:43:09;;;;;;;7.88;3.50;;;;;;;1.67;34.87;101595.63;5072007;28;20060;-45
2024/01/09 09:45:38;;;;;;;8.32;3.58;;;;;;;1.37;33.10;101600.94;5072121;28;20131;-47
2024/01/09 09:48:08;;;;;;;9.10;3.28;;;;;;;1.26;33.32;101595.69;5071810;28;20087;-46
2024/01/09 09:50:36;;;;;;;10.20;3.80;;;;;;;1.44;34.21;101592.13;5071619;28;20048;-45
2024/01/09 09:53:09;;;;;;;7.82;3.58;;;;;;;1.40;33.46;101595.66;5071925;28;20125;-45
2024/01/09 09:55:41;;;;;;;8.13;3.70;;;;;;;1.30;33.66;101599.19;5071646;28;20068;-44
2024/01/09 09:58:09;;;;;;;5.35;2.80;;;;;;;1.39;32.69;101596.53;5071457;28;20044;-45
2024/01/09 10:00:39;;;;;;;5.95;2.90;;;;;;;1.33;32.70;101597.41;5071444;28;20054;-45
2024/01/09 10:03:11;;;;;;;6.80;3.35;;;;;;;1.21;32.71;101596.56;5071529;28;20135;-45
2024/01/09 10:05:43;;;;;;;7.70;3.27;;;;;;;1.34;32.56;101600.91;5071529;28;20622;-44
2024/01/09 10:08:13;;;;;;;5.68;2.80;;;;;;;1.32;32.13;101602.69;5071464;28;20041;-44
2024/01/09 10:10:42;;;;;;;6.95;3.13;;;;;;;1.13;32.66;101600.06;5071340;28;20049;-45
2024/01/09 10:13:11;;;;;;;7.18;3.17;;;;;;;1.28;31.83;101606.19;5071745;28;20064;-45
2024/01/09 10:15:56;;;;;;;7.03;2.95;;;;;;;1.28;32.19;101600.94;5071146;28;20077;-46
2024/01/09 10:18:28;;;;;;;5.80;2.67;;;;;;;1.31;32.31;101606.19;5070740;28;20415;-50
2024/01/09 10:20:59;;;;;;;6.97;2.78;;;;;;;1.41;32.24;101602.66;5071231;28;20056;-47
2024/01/09 10:23:28;;;;;;;6.88;2.80;;;;;;;1.29;32.40;101607.94;5071283;28;20106;-45
2024/01/09 10:26:00;;;;;;;4.72;2.33;;;;;;;1.38;32.63;101600.06;5071021;28;20076;-46
2024/01/09 10:28:28;;;;;;;5.75;2.60;;;;;;;1.50;32.58;101597.41;5070570;28;20386;-46
2024/01/09 10:30:58;;;;;;;6.72;3.05;;;;;;;1.46;32.31;101600.06;5071314;28;20049;-45
2024/01/09 10:33:26;;;;;;;7.43;3.05;;;;;;;1.50;32.71;101613.19;5071092;28;20158;-47
2024/01/09 10:35:55;;;;;;;6.88;2.85;;;;;;;1.56;32.47;101607.91;5071389;28;20048;-45
2024/01/09 10:38:25;;;;;;;6.93;3.00;;;;;;;1.61;32.64;101608.78;5070964;28;20052;-44
2024/01/09 10:40:56;;;;;;;5.43;2.55;;;;;;;1.64;32.45;101611.41;5070777;28;20048;-45
2024/01/09 10:43:26;;;;;;;6.70;3.13;;;;;;;1.65;32.56;101607.91;5071106;28;20048;-45
2024/01/09 10:45:55;;;;;;;5.03;2.58;;;;;;;1.75;31.88;101613.16;5070898;28;20062;-47
2024/01/09 10:48:26;;;;;;;8.52;3.22;;;;;;;1.91;32.33;101610.44;5070874;28;20048;-45
2024/01/09 10:50:56;;;;;;;7.78;3.30;;;;;;;1.72;33.79;101614.88;5069632;28;20563;-45
2024/01/09 10:53:26;;;;;;;6.50;2.90;;;;;;;1.49;32.69;101616.69;5069408;28;20094;-44
2024/01/09 10:56:00;;;;;;;7.32;2.92;;;;;;;1.79;33.59;101614.88;5070817;28;20086;-44
2024/01/09 10:58:28;;;;;;;6.13;2.55;;;;;;;1.65;32.48;101615.78;5070704;28;20084;-43
2024/01/09 11:00:57;;;;;;;5.78;2.60;;;;;;;1.62;32.80;101613.16;5070645;28;20053;-45
2024/01/09 11:03:27;;;;;;;7.72;2.80;;;;;;;1.57;33.09;101614.94;5070630;28;20045;-44
2024/01/09 11:06:01;;;;;;;5.72;2.80;;;;;;;1.53;32.69;101615.78;5070282;28;20049;-44
2024/01/09 11:08:34;;;;;;;5.63;2.72;;;;;;;1.59;32.83;101628.94;5070572;28;20078;-44
2024/01/09 11:11:05;;;;;;;9.17;2.90;;;;;;;1.67;33.29;101621.91;5070932;28;20055;-46
2024/01/09 11:13:36;;;;;;;7.35;2.97;;;;;;;1.93;32.87;101624.50;5070837;28;20041;-45
2024/01/09 11:16:07;;;;;;;6.63;2.95;;;;;;;2.06;33.43;101619.19;5070347;28;20165;-45
2024/01/09 11:18:40;;;;;;;211.75;83.20;;;;;;;2.22;33.79;101616.50;5070566;28;20113;-44
2024/01/09 11:21:10;;;;;;;7.03;4.32;;;;;;;2.29;32.92;101607.66;5070345;28;20041;-44
2024/01/09 11:23:57;;;;;;;8.48;3.28;;;;;;;2.40;34.18;101609.38;5070236;28;20052;-45
2024/01/09 11:26:30;;;;;;;8.70;3.10;;;;;;;2.45;33.55;101612.88;5070287;28;20171;-44
2024/01/09 11:28:59;;;;;;;8.85;3.17;;;;;;;2.72;33.83;101603.94;5070116;28;20134;-45
2024/01/09 11:31:29;;;;;;;5.90;2.90;;;;;;;2.65;33.27;101616.25;5070742;28;20055;-46
2024/01/09 11:34:02;;;;;;;4.55;2.45;;;;;;;2.43;32.88;101610.25;5070669;28;20234;-47
2024/01/09 11:36:33;;;;;;;6.13;2.78;;;;;;;2.38;33.18;101606.75;5070258;28;20051;-46
2024/01/09 11:39:01;;;;;;;5.55;2.53;;;;;;;2.52;33.04;101606.69;5070083;28;20072;-45